Time;durP1;ratioP1;P1;durP2;ratioP2;P2;SDS_P1;SDS_P2;PMS_P1;PMS_P2;Temp;Humidity;BMP_temperature;BMP_pressure;BME280_temperature;BME280_humidity;BME280_pressure;Samples;Min_cycle;Max_cycle;Signal;HPM_P1;HPM_P2
2023/06/23 00:00:35;;;;;;;;;21.00;20.00;;;;;24.85;51.45;100817.48;112285;1263;21886;-37
2023/06/23 00:03:22;;;;;;;;;19.00;17.50;;;;;24.85;51.29;100830.26;112153;1248;21523;-37
2023/06/23 00:05:50;;;;;;;;;17.00;17.00;;;;;24.85;51.28;100837.01;112342;1248;20835;-37
2023/06/23 00:08:17;;;;;;;;;17.00;16.00;;;;;24.85;51.29;100829.11;112120;1263;20245;-37
2023/06/23 00:10:44;;;;;;;;;20.00;18.00;;;;;24.85;51.27;100821.87;112198;1263;19976;-37
2023/06/23 00:13:12;;;;;;;;;18.00;17.00;;;;;24.84;51.03;100817.54;112143;1263;19777;-37
2023/06/23 00:15:39;;;;;;;;;20.00;17.00;;;;;24.85;51.11;100824.56;112168;1261;22974;-36
2023/06/23 00:18:07;;;;;;;;;18.00;17.00;;;;;24.84;51.12;100832.95;112140;1263;20300;-36
2023/06/23 00:20:34;;;;;;;;;16.33;16.00;;;;;24.86;51.06;100834.90;112091;1248;20622;-36
2023/06/23 00:23:02;;;;;;;;;20.00;18.50;;;;;24.84;50.99;100827.74;112194;1263;21744;-36
2023/06/23 00:25:29;;;;;;;;;18.00;17.00;;;;;24.83;50.93;100821.55;112031;1263;18863;-37
2023/06/23 00:27:56;;;;;;;;;17.00;17.00;;;;;24.83;50.81;100811.98;112144;1263;20910;-36
2023/06/23 00:30:24;;;;;;;;;22.50;19.00;;;;;24.83;51.03;100803.95;112042;1248;21506;-37
2023/06/23 00:32:52;;;;;;;;;22.00;18.00;;;;;24.82;50.84;100794.52;112127;1263;19821;-37
2023/06/23 00:35:19;;;;;;;;;22.00;18.00;;;;;24.80;50.83;100787.71;112152;1248;21014;-37
2023/06/23 00:37:47;;;;;;;;;24.00;20.50;;;;;24.81;50.65;100789.44;112153;1247;21670;-37
2023/06/23 00:40:15;;;;;;;;;20.50;18.00;;;;;24.81;50.50;100787.50;112123;1248;20076;-37
2023/06/23 00:42:43;;;;;;;;;18.00;17.00;;;;;24.79;50.09;100786.76;112110;1263;19482;-37
2023/06/23 00:45:11;;;;;;;;;19.33;17.33;;;;;24.78;49.94;100783.86;112262;1263;20269;-37
2023/06/23 00:47:38;;;;;;;;;20.00;19.00;;;;;24.76;49.85;100782.80;112090;1263;20153;-37
2023/06/23 00:50:05;;;;;;;;;24.50;20.00;;;;;24.77;49.72;100777.91;112271;1248;19398;-37
2023/06/23 00:52:33;;;;;;;;;21.00;17.00;;;;;24.75;49.53;100773.14;112065;1247;21710;-36
2023/06/23 00:55:00;;;;;;;;;18.00;18.00;;;;;24.74;49.51;100771.11;112242;1248;20339;-37
2023/06/23 00:57:28;;;;;;;;;20.67;20.00;;;;;24.72;49.67;100768.52;111806;1263;348448;-37
2023/06/23 00:59:56;;;;;;;;;24.00;21.00;;;;;24.66;49.92;100766.12;112252;1248;21517;-37
2023/06/23 01:02:23;;;;;;;;;22.00;20.00;;;;;24.63;50.20;100767.54;112096;1262;20724;-37
2023/06/23 01:04:51;;;;;;;;;20.00;20.00;;;;;24.61;50.31;100765.55;112250;1263;19661;-37
2023/06/23 01:07:21;;;;;;;;;24.00;21.00;;;;;24.60;50.55;100766.80;112079;1263;21668;-37
2023/06/23 01:09:49;;;;;;;;;24.00;22.00;;;;;24.59;50.66;100771.98;112072;1248;20250;-37
2023/06/23 01:12:17;;;;;;;;;20.50;20.00;;;;;24.61;50.74;100777.86;112175;1263;19666;-37
2023/06/23 01:14:44;;;;;;;;;21.00;21.00;;;;;24.64;50.63;100777.41;112046;1248;22795;-37
2023/06/23 01:17:11;;;;;;;;;20.00;17.50;;;;;24.65;50.50;100774.75;112179;1263;19902;-37
2023/06/23 01:19:39;;;;;;;;;20.67;18.00;;;;;24.63;50.66;100777.25;112049;1248;20869;-37
2023/06/23 01:22:06;;;;;;;;;24.00;19.50;;;;;24.61;50.73;100779.42;112172;1248;21685;-37
2023/06/23 01:24:33;;;;;;;;;22.00;18.00;;;;;24.63;50.60;100786.85;112063;1257;19822;-37
2023/06/23 01:27:01;;;;;;;;;22.00;21.00;;;;;24.65;50.60;100787.54;112203;1263;19441;-37
2023/06/23 01:29:29;;;;;;;;;20.50;18.50;;;;;24.64;50.58;100782.52;112131;1263;20113;-38
2023/06/23 01:31:56;;;;;;;;;20.00;19.00;;;;;24.61;50.67;100779.63;112202;1248;20378;-38
2023/06/23 01:34:23;;;;;;;;;21.00;20.00;;;;;24.63;50.57;100779.77;112090;1263;19561;-36
2023/06/23 01:36:51;;;;;;;;;19.50;18.50;;;;;24.63;50.39;100783.52;112207;1256;21428;-36
2023/06/23 01:39:18;;;;;;;;;20.00;18.00;;;;;24.63;50.51;100786.73;112137;1251;20020;-37
2023/06/23 01:41:45;;;;;;;;;22.50;21.00;;;;;24.65;50.50;100784.77;112242;1262;19558;-36
2023/06/23 01:44:14;;;;;;;;;23.00;20.00;;;;;24.67;50.58;100790.21;112039;1263;22687;-35
2023/06/23 01:46:42;;;;;;;;;26.50;23.00;;;;;24.66;50.41;100791.60;112170;1248;20354;-36
2023/06/23 01:49:10;;;;;;;;;21.00;20.00;;;;;24.65;50.38;100796.14;112026;1248;22114;-36
2023/06/23 01:51:38;;;;;;;;;;;;;;;24.66;50.45;100803.70;112129;1248;22662;-36
2023/06/23 01:54:06;;;;;;;;;22.00;21.00;;;;;24.64;50.29;100808.14;112230;1262;19937;-36
2023/06/23 01:56:33;;;;;;;;;25.50;20.50;;;;;24.63;50.25;100809.03;112047;1248;20897;-36
2023/06/23 01:59:00;;;;;;;;;24.50;23.50;;;;;24.60;50.24;100803.02;112256;1247;20107;-36
2023/06/23 02:01:28;;;;;;;;;23.00;21.00;;;;;24.60;50.18;100794.92;112102;1248;20110;-36
2023/06/23 02:03:55;;;;;;;;;24.00;23.00;;;;;24.61;50.13;100791.56;112293;1263;20904;-36
2023/06/23 02:06:22;;;;;;;;;23.50;21.00;;;;;24.60;50.10;100792.69;112069;1263;20218;-36
2023/06/23 02:08:50;;;;;;;;;24.50;24.50;;;;;24.60;50.12;100786.87;112297;1263;18782;-36
2023/06/23 02:11:17;;;;;;;;;20.50;20.00;;;;;24.60;50.10;100787.45;112132;1248;20946;-36
2023/06/23 02:13:44;;;;;;;;;21.00;21.00;;;;;24.60;50.17;100777.27;112180;1263;20128;-36
2023/06/23 02:16:12;;;;;;;;;20.00;18.00;;;;;24.59;50.15;100776.96;112197;1248;20063;-36
2023/06/23 02:18:39;;;;;;;;;20.50;19.50;;;;;24.59;50.04;100778.39;112047;1263;19478;-36
2023/06/23 02:21:06;;;;;;;;;17.00;17.00;;;;;24.59;50.12;100778.05;112158;1248;21594;-36
2023/06/23 02:23:34;;;;;;;;;20.00;18.50;;;;;24.59;49.99;100779.91;112073;1263;18741;-36
2023/06/23 02:26:01;;;;;;;;;23.00;20.50;;;;;24.59;49.94;100780.70;112247;1247;19907;-37
2023/06/23 02:28:28;;;;;;;;;17.00;17.00;;;;;24.57;50.09;100771.18;112092;1260;21711;-37
2023/06/23 02:30:56;;;;;;;;;19.50;18.50;;;;;24.58;50.05;100767.64;112257;1248;19971;-37
2023/06/23 02:33:23;;;;;;;;;24.00;23.67;;;;;24.58;50.12;100765.66;112102;1255;20814;-36
2023/06/23 02:35:51;;;;;;;;;35.50;32.50;;;;;24.59;50.07;100758.73;112248;1248;22841;-37
2023/06/23 02:38:21;;;;;;;;;23.00;21.00;;;;;24.59;50.19;100759.42;112128;1248;20067;-36
2023/06/23 02:40:48;;;;;;;;;29.50;24.50;;;;;24.60;50.03;100758.45;112103;1257;20859;-37
2023/06/23 02:43:15;;;;;;;;;25.33;24.00;;;;;24.60;50.04;100756.39;112281;1248;21574;-37
2023/06/23 02:45:43;;;;;;;;;20.33;17.33;;;;;24.59;50.12;100759.29;112091;1263;18596;-37
2023/06/23 02:48:10;;;;;;;;;24.00;23.00;;;;;24.58;50.10;100758.79;112294;1247;20725;-36
2023/06/23 02:50:37;;;;;;;;;21.00;19.00;;;;;24.59;50.07;100762.41;112089;1263;20310;-36
2023/06/23 02:53:05;;;;;;;;;21.00;21.00;;;;;24.57;50.10;100764.98;112280;1251;20058;-35
2023/06/23 02:55:32;;;;;;;;;24.00;23.00;;;;;24.57;49.93;100759.38;112164;1263;19556;-36
2023/06/23 02:57:59;;;;;;;;;20.00;18.50;;;;;24.56;50.01;100756.00;112124;1247;21545;-36
2023/06/23 03:00:26;;;;;;;;;24.33;19.33;;;;;24.56;49.97;100756.01;112190;1263;19826;-35
2023/06/23 03:02:54;;;;;;;;;24.00;21.00;;;;;24.57;49.95;100751.74;112052;1248;19415;-37
2023/06/23 03:05:22;;;;;;;;;17.67;17.67;;;;;24.55;49.85;100741.88;112181;1263;20282;-36
2023/06/23 03:07:49;;;;;;;;;23.33;20.67;;;;;24.55;49.81;100732.96;112055;1248;20113;-36
2023/06/23 03:10:16;;;;;;;;;21.00;20.00;;;;;24.54;49.86;100728.36;112230;1248;19443;-37
2023/06/23 03:12:44;;;;;;;;;18.00;17.00;;;;;24.55;49.82;100729.34;112074;1248;21870;-36
2023/06/23 03:15:11;;;;;;;;;20.00;18.00;;;;;24.52;49.77;100730.55;112227;1263;18876;-37
2023/06/23 03:17:38;;;;;;;;;19.50;18.00;;;;;24.51;49.87;100733.34;112085;1263;21333;-36
2023/06/23 03:20:06;;;;;;;;;20.00;18.00;;;;;24.49;49.89;100728.38;112287;1263;20063;-37
2023/06/23 03:22:33;;;;;;;;;21.00;19.50;;;;;24.47;49.91;100731.98;112104;1247;18702;-36
2023/06/23 03:25:03;;;;;;;;;18.00;17.50;;;;;24.45;50.03;100737.96;112229;1248;20924;-37
2023/06/23 03:27:30;;;;;;;;;21.00;19.50;;;;;24.45;50.01;100736.38;112282;1248;21625;-37
2023/06/23 03:29:57;;;;;;;;;20.00;20.00;;;;;24.46;50.04;100735.23;112101;1263;18789;-37
2023/06/23 03:32:25;;;;;;;;;21.50;20.00;;;;;24.46;50.28;100733.92;112313;1256;20521;-36
2023/06/23 03:34:52;;;;;;;;;19.00;17.00;;;;;24.43;50.53;100731.96;112133;1248;21770;-37
2023/06/23 03:37:19;;;;;;;;;19.50;19.00;;;;;24.40;50.60;100709.70;112101;1263;18752;-36
2023/06/23 03:39:46;;;;;;;;;20.33;17.00;;;;;24.38;50.74;100696.59;112177;1247;20778;-37
2023/06/23 03:42:14;;;;;;;;;17.00;17.00;;;;;24.42;50.72;100689.05;112079;1247;21569;-37
2023/06/23 03:44:41;;;;;;;;;25.50;20.00;;;;;24.37;50.57;100688.92;112184;1263;19180;-37
2023/06/23 03:47:08;;;;;;;;;20.67;20.33;;;;;24.10;51.12;100682.95;112089;1263;19457;-37
2023/06/23 03:49:36;;;;;;;;;17.00;17.00;;;;;23.99;51.28;100696.08;112230;1255;21345;-37
2023/06/23 03:52:03;;;;;;;;;16.50;16.50;;;;;23.87;51.45;100703.99;112094;1263;19885;-37
2023/06/23 03:54:30;;;;;;;;;17.00;17.00;;;;;23.82;51.59;100714.48;112232;1248;19408;-37
2023/06/23 03:56:58;;;;;;;;;21.00;17.00;;;;;23.80;51.48;100719.34;112090;1262;20429;-37
2023/06/23 03:59:25;;;;;;;;;18.00;16.00;;;;;23.73;51.81;100718.39;112268;1248;20057;-37
2023/06/23 04:01:52;;;;;;;;;18.00;17.00;;;;;23.89;51.49;100715.63;112096;1263;19306;-37
2023/06/23 04:04:21;;;;;;;;;23.00;20.00;;;;;23.92;51.49;100715.96;112319;1263;20103;-36
2023/06/23 04:06:49;;;;;;;;;23.00;19.00;;;;;23.84;51.52;100712.46;112098;1263;18916;-37
2023/06/23 04:09:16;;;;;;;;;20.00;19.00;;;;;23.72;51.75;100692.88;112229;1262;20983;-37
2023/06/23 04:11:43;;;;;;;;;19.00;18.00;;;;;23.60;52.00;100677.15;112164;1248;20132;-37
2023/06/23 04:14:10;;;;;;;;;22.00;20.00;;;;;23.57;52.00;100670.15;112346;1248;20102;-37
2023/06/23 04:16:38;;;;;;;;;20.50;18.00;;;;;23.41;52.13;100683.09;112205;1248;21269;-37
2023/06/23 04:19:05;;;;;;;;;19.00;18.00;;;;;23.50;52.01;100703.63;112427;1249;21497;-37
2023/06/23 04:21:32;;;;;;;;;22.00;20.00;;;;;23.51;51.71;100714.88;112240;1248;21269;-37
2023/06/23 04:24:00;;;;;;;;;19.67;19.67;;;;;23.49;51.96;100725.82;112436;1248;20898;-38
2023/06/23 04:26:27;;;;;;;;;30.00;30.00;;;;;23.53;52.02;100727.77;112213;1263;20468;-37
2023/06/23 04:28:54;;;;;;;;;35.67;32.33;;;;;23.45;52.08;100738.77;112365;1251;20184;-37
2023/06/23 04:31:22;;;;;;;;;33.00;29.00;;;;;23.41;52.41;100750.30;112131;1263;21880;-37
2023/06/23 04:33:49;;;;;;;;;29.00;26.00;;;;;23.41;52.77;100756.06;112031;1248;21606;-37
2023/06/23 04:36:16;;;;;;;;;25.00;22.00;;;;;23.41;52.74;100765.14;112193;1248;21138;-38
2023/06/23 04:38:44;;;;;;;;;22.00;19.50;;;;;23.38;53.00;100782.63;112077;1247;20952;-37
2023/06/23 04:41:12;;;;;;;;;21.00;19.50;;;;;23.33;53.49;100821.10;112216;1263;21475;-37
2023/06/23 04:43:39;;;;;;;;;22.00;21.00;;;;;23.29;53.81;100851.89;112127;1263;18797;-37
2023/06/23 04:46:07;;;;;;;;;27.00;22.00;;;;;23.24;54.53;100871.10;112188;1263;19497;-37
2023/06/23 04:48:34;;;;;;;;;30.50;29.00;;;;;23.10;55.47;100885.14;112060;1263;20171;-37
2023/06/23 04:51:01;;;;;;;;;31.00;27.00;;;;;23.10;56.33;100887.02;112181;1263;18738;-37
2023/06/23 04:53:29;;;;;;;;;35.00;32.00;;;;;23.05;57.37;100884.17;112084;1263;19446;-37
2023/06/23 04:55:56;;;;;;;;;37.50;33.50;;;;;22.97;58.10;100858.41;112170;1263;20248;-37
2023/06/23 04:58:23;;;;;;;;;33.67;30.67;;;;;22.91;58.83;100830.33;112121;1248;20033;-37
2023/06/23 05:00:50;;;;;;;;;26.00;23.50;;;;;22.99;58.97;100810.50;112251;1263;19520;-37
2023/06/23 05:03:18;;;;;;;;;26.33;21.67;;;;;23.22;59.02;100780.55;112073;1263;20172;-37
2023/06/23 05:05:45;;;;;;;;;25.00;24.50;;;;;23.40;59.09;100753.99;112311;1248;20039;-37
2023/06/23 05:08:12;;;;;;;;;30.00;25.00;;;;;23.57;58.65;100756.40;112125;1263;19653;-38
2023/06/23 05:10:40;;;;;;;;;25.00;24.00;;;;;23.62;58.80;100758.70;112299;1263;21471;-38
2023/06/23 05:13:07;;;;;;;;;26.67;24.67;;;;;23.70;58.51;100738.63;112168;1247;20232;-37
2023/06/23 05:15:34;;;;;;;;;24.00;22.00;;;;;23.72;58.66;100707.36;112204;1256;20852;-37
2023/06/23 05:18:02;;;;;;;;;25.50;24.00;;;;;23.67;59.03;100688.13;112291;1263;20343;-38
2023/06/23 05:20:29;;;;;;;;;20.50;18.50;;;;;23.69;59.07;100665.52;112070;1263;19102;-37
2023/06/23 05:22:56;;;;;;;;;24.00;21.33;;;;;23.82;58.78;100646.09;112210;1257;21010;-37
2023/06/23 05:25:29;;;;;;;;;23.67;22.00;;;;;23.94;58.30;100626.64;112094;1263;20195;-38
2023/06/23 05:27:59;;;;;;;;;23.00;22.00;;;;;23.94;58.22;100614.55;112170;1263;18796;-38
2023/06/23 05:30:27;;;;;;;;;25.50;23.50;;;;;23.83;58.83;100600.23;112163;1248;21102;-37
2023/06/23 05:32:54;;;;;;;;;27.50;25.50;;;;;23.77;59.13;100590.95;112063;1263;20210;-37
2023/06/23 05:35:21;;;;;;;;;25.00;25.00;;;;;23.78;59.28;100577.98;112203;1263;18768;-37
2023/06/23 05:37:49;;;;;;;;;25.00;22.00;;;;;23.93;58.97;100565.45;112079;1263;19437;-38
2023/06/23 05:40:16;;;;;;;;;26.00;26.00;;;;;23.78;59.52;100551.25;112210;1257;21639;-37
2023/06/23 05:42:43;;;;;;;;;26.00;24.00;;;;;23.63;60.24;100535.10;112115;1248;21171;-38
2023/06/23 05:45:11;;;;;;;;;25.00;25.00;;;;;23.57;60.33;100534.20;112259;1248;19424;-38
2023/06/23 05:47:38;;;;;;;;;28.00;25.00;;;;;23.57;60.61;100540.47;112104;1257;21437;-37
2023/06/23 05:50:05;;;;;;;;;28.00;25.00;;;;;23.56;60.68;100531.05;112261;1262;18764;-37
2023/06/23 05:52:33;;;;;;;;;26.67;24.67;;;;;23.57;60.43;100525.28;112149;1248;20912;-37
2023/06/23 05:55:00;;;;;;;;;27.00;23.00;;;;;23.67;60.27;100518.13;112311;1263;20129;-38
2023/06/23 05:57:28;;;;;;;;;24.00;22.00;;;;;23.76;60.17;100522.61;112084;1262;19077;-37
2023/06/23 05:59:55;;;;;;;;;19.00;19.00;;;;;23.85;59.93;100527.88;112293;1248;20849;-37
2023/06/23 06:02:22;;;;;;;;;22.00;21.00;;;;;23.85;59.98;100536.58;112095;1262;22407;-37
2023/06/23 06:04:50;;;;;;;;;21.00;18.00;;;;;23.91;59.52;100548.95;112292;1257;20021;-37
2023/06/23 06:07:17;;;;;;;;;25.00;22.00;;;;;23.91;59.67;100573.73;112101;1255;19394;-37
2023/06/23 06:09:44;;;;;;;;;24.00;21.00;;;;;23.75;60.22;100592.27;112208;1263;20268;-37
2023/06/23 06:12:12;;;;;;;;;25.67;22.67;;;;;23.65;60.80;100601.41;112156;1248;21199;-37
2023/06/23 06:14:39;;;;;;;;;21.33;21.00;;;;;23.50;61.09;100603.73;112098;1263;19758;-37
2023/06/23 06:17:06;;;;;;;;;25.67;23.00;;;;;23.51;61.51;100608.48;112211;1263;21435;-38
2023/06/23 06:19:34;;;;;;;;;25.00;24.00;;;;;23.45;61.82;100612.21;112084;1263;19897;-38
2023/06/23 06:22:01;;;;;;;;;26.00;22.00;;;;;23.41;62.02;100612.68;112221;1263;19439;-37
2023/06/23 06:24:28;;;;;;;;;26.00;22.00;;;;;23.45;62.14;100613.48;112126;1263;20352;-37
2023/06/23 06:26:56;;;;;;;;;25.00;23.00;;;;;23.53;61.70;100615.36;112240;1248;21316;-38
2023/06/23 06:29:23;;;;;;;;;22.00;22.00;;;;;23.52;61.47;100619.27;112094;1248;19659;-38
2023/06/23 06:31:51;;;;;;;;;25.00;22.00;;;;;23.50;61.35;100627.22;112233;1263;22854;-38
2023/06/23 06:34:18;;;;;;;;;24.00;21.00;;;;;23.49;61.43;100623.29;112106;1263;21556;-37
2023/06/23 06:36:46;;;;;;;;;22.00;22.00;;;;;23.52;61.60;100629.16;112254;1248;21016;-38
2023/06/23 06:39:13;;;;;;;;;19.33;19.33;;;;;23.51;61.60;100632.14;112108;1263;21412;-37
2023/06/23 06:41:40;;;;;;;;;23.00;22.00;;;;;23.46;61.85;100632.52;112292;1251;20037;-38
2023/06/23 06:44:08;;;;;;;;;24.50;23.00;;;;;23.53;61.47;100625.46;112142;1263;19450;-37
2023/06/23 06:46:36;;;;;;;;;21.00;19.00;;;;;23.53;61.32;100625.92;112321;1263;20448;-37
2023/06/23 06:49:04;;;;;;;;;23.00;21.00;;;;;23.64;61.05;100627.30;112089;1263;20472;-38
2023/06/23 06:51:31;;;;;;;;;21.33;18.00;;;;;23.68;61.04;100628.90;112216;1255;21097;-38
2023/06/23 06:53:58;;;;;;;;;22.00;19.00;;;;;23.78;60.95;100636.80;112125;1262;21514;-37
2023/06/23 06:56:26;;;;;;;;;19.00;19.00;;;;;23.90;60.67;100628.46;112289;1248;20031;-38
2023/06/23 06:58:53;;;;;;;;;17.00;16.00;;;;;24.04;60.43;100625.39;112118;1248;20916;-37
2023/06/23 07:01:21;;;;;;;;;18.50;18.00;;;;;24.13;60.01;100626.50;112259;1248;20457;-38
2023/06/23 07:03:48;;;;;;;;;20.00;19.00;;;;;24.19;59.81;100630.21;112140;1257;19855;-37
2023/06/23 07:06:15;;;;;;;;;24.00;22.00;;;;;24.20;59.59;100634.30;112277;1255;21067;-37
2023/06/23 07:08:43;;;;;;;;;27.00;23.00;;;;;24.11;59.94;100634.95;112149;1248;21554;-38
2023/06/23 07:11:10;;;;;;;;;22.50;21.00;;;;;24.01;60.24;100638.27;112323;1248;19960;-37
2023/06/23 07:13:38;;;;;;;;;26.50;25.00;;;;;23.87;60.64;100633.62;112120;1248;20890;-37
2023/06/23 07:16:05;;;;;;;;;23.00;23.00;;;;;23.78;61.06;100634.06;112335;1256;21537;-37
2023/06/23 07:18:32;;;;;;;;;22.00;19.50;;;;;23.85;60.99;100642.29;112191;1263;18694;-37
2023/06/23 07:21:00;;;;;;;;;37.00;28.00;;;;;23.94;60.97;100646.17;112309;1263;19581;-37
2023/06/23 07:23:28;;;;;;;;;33.00;27.00;;;;;23.75;61.26;100651.05;112103;1263;20294;-37
2023/06/23 07:25:55;;;;;;;;;31.67;27.67;;;;;23.55;61.96;100649.35;112305;1262;19136;-37
2023/06/23 07:28:22;;;;;;;;;29.00;26.00;;;;;23.47;62.54;100658.02;112159;1248;22118;-38
2023/06/23 07:30:50;;;;;;;;;28.00;26.00;;;;;23.46;62.61;100656.21;112248;1263;20401;-37
2023/06/23 07:33:17;;;;;;;;;29.00;26.00;;;;;23.57;62.26;100654.75;112188;1248;20070;-37
2023/06/23 07:35:44;;;;;;;;;36.50;32.00;;;;;23.54;62.26;100658.27;112077;1248;22153;-37
2023/06/23 07:38:12;;;;;;;;;32.33;26.33;;;;;23.34;62.92;100669.61;112198;1257;20088;-37
2023/06/23 07:40:39;;;;;;;;;33.33;27.67;;;;;23.39;62.90;100686.06;112093;1263;18599;-37
2023/06/23 07:43:06;;;;;;;;;28.00;25.50;;;;;23.34;62.98;100697.33;112214;1262;20705;-37
2023/06/23 07:45:33;;;;;;;;;30.00;26.00;;;;;23.34;63.00;100714.50;112118;1263;20147;-37
2023/06/23 07:48:01;;;;;;;;;28.33;26.33;;;;;23.32;63.12;100727.61;112259;1248;20495;-37
2023/06/23 07:50:28;;;;;;;;;27.00;24.50;;;;;23.29;63.43;100737.54;112100;1256;22512;-38
2023/06/23 07:52:56;;;;;;;;;24.50;22.00;;;;;23.24;63.50;100746.95;112254;1247;22804;-39
2023/06/23 07:55:23;;;;;;;;;24.00;22.00;;;;;23.27;63.50;100766.39;112109;1263;18606;-39
2023/06/23 07:57:50;;;;;;;;;22.00;21.67;;;;;23.32;63.22;100769.18;112285;1263;19466;-38
2023/06/23 08:00:18;;;;;;;;;27.50;24.00;;;;;23.17;63.72;100776.98;112112;1263;20171;-38
2023/06/23 08:02:45;;;;;;;;;28.00;26.00;;;;;22.87;64.71;100783.33;112337;1248;20046;-38
2023/06/23 08:05:12;;;;;;;;;27.00;27.00;;;;;22.74;65.44;100788.95;112111;1263;19650;-38
2023/06/23 08:07:40;;;;;;;;;27.00;21.00;;;;;22.75;65.73;100805.63;112294;1263;21830;-37
2023/06/23 08:10:07;;;;;;;;;30.50;28.00;;;;;22.76;66.31;100803.17;112146;1248;20051;-39
2023/06/23 08:12:37;;;;;;;;;33.00;28.00;;;;;22.68;66.69;100793.65;112322;1263;20812;-38
2023/06/23 08:15:04;;;;;;;;;27.50;24.50;;;;;22.71;66.90;100792.85;112140;1263;20131;-38
2023/06/23 08:17:32;;;;;;;;;29.67;27.33;;;;;22.78;66.78;100785.66;112175;1248;18750;-38
2023/06/23 08:19:59;;;;;;;;;28.00;27.33;;;;;22.74;66.83;100788.60;112142;1263;19421;-38
2023/06/23 08:22:27;;;;;;;;;30.00;29.00;;;;;22.81;66.51;100789.35;112147;1263;21475;-39
2023/06/23 08:24:54;;;;;;;;;30.50;26.00;;;;;22.79;66.31;100795.66;112057;1263;19997;-38
2023/06/23 08:27:21;;;;;;;;;37.00;31.00;;;;;22.53;66.62;100793.77;112224;1247;21290;-38
2023/06/23 08:29:49;;;;;;;;;31.00;26.00;;;;;22.53;67.27;100799.39;112071;1263;21575;-38
2023/06/23 08:32:17;;;;;;;;;34.00;30.00;;;;;22.58;66.98;100795.35;112194;1263;21195;-38
2023/06/23 08:34:44;;;;;;;;;32.00;27.50;;;;;22.60;67.11;100798.02;112059;1256;20775;-38
2023/06/23 08:37:11;;;;;;;;;30.00;27.00;;;;;22.52;67.06;100805.93;112170;1263;21525;-38
2023/06/23 08:39:39;;;;;;;;;27.00;24.00;;;;;22.53;67.08;100806.66;112052;1263;19912;-37
2023/06/23 08:42:06;;;;;;;;;31.00;28.00;;;;;22.64;66.52;100810.95;112195;1263;20803;-38
2023/06/23 08:44:34;;;;;;;;;35.50;34.00;;;;;22.63;66.63;100810.48;112083;1263;21518;-37
2023/06/23 08:47:02;;;;;;;;;34.00;29.00;;;;;22.81;66.33;100807.48;112186;1262;19995;-38
2023/06/23 08:49:30;;;;;;;;;68.00;50.00;;;;;22.66;66.23;100808.36;112282;1263;19476;-38
2023/06/23 08:51:57;;;;;;;;;39.00;36.00;;;;;22.57;66.65;100807.14;112151;1256;22640;-38
2023/06/23 08:54:24;;;;;;;;;33.00;29.00;;;;;22.58;67.25;100815.17;112070;1251;20091;-37
2023/06/23 08:56:51;;;;;;;;;26.00;23.00;;;;;22.51;67.69;100814.44;112204;1248;22030;-38
2023/06/23 08:59:19;;;;;;;;;31.00;28.00;;;;;22.49;67.59;100810.67;112072;1248;21504;-37
2023/06/23 09:01:46;;;;;;;;;27.00;24.00;;;;;22.50;67.60;100809.02;112227;1248;19210;-37
2023/06/23 09:04:14;;;;;;;;;32.00;29.50;;;;;22.52;67.63;100807.12;112113;1248;21257;-37
2023/06/23 09:06:42;;;;;;;;;56.33;45.00;;;;;22.67;67.28;100803.92;112175;1248;21476;-37
2023/06/23 09:09:09;;;;;;;;;118.00;90.00;;;;;22.90;66.92;100800.29;112090;1263;18873;-38
2023/06/23 09:11:37;;;;;;;;;100.00;71.00;;;;;23.15;66.26;100791.16;112142;1248;20867;-39
2023/06/23 09:14:04;;;;;;;;;145.00;110.00;;;;;23.15;66.16;100786.06;112046;1263;20143;-38
2023/06/23 09:16:31;;;;;;;;;97.50;72.00;;;;;23.24;66.15;100780.61;112176;1248;20318;-39
2023/06/23 09:18:59;;;;;;;;;87.00;63.00;;;;;23.17;66.23;100780.84;112090;1263;20780;-38
2023/06/23 09:21:26;;;;;;;;;63.00;52.00;;;;;23.15;66.29;100770.38;112215;1247;21438;-39
2023/06/23 09:23:53;;;;;;;;;53.00;45.00;;;;;23.15;66.29;100759.98;112121;1248;20029;-39
2023/06/23 09:26:21;;;;;;;;;45.33;35.33;;;;;23.18;66.38;100754.31;112217;1248;21882;-39
2023/06/23 09:28:49;;;;;;;;;37.50;33.50;;;;;23.26;66.41;100753.99;112080;1263;22857;-39
2023/06/23 09:31:17;;;;;;;;;33.00;29.00;;;;;23.35;66.06;100753.17;112178;1248;21444;-39
2023/06/23 09:33:44;;;;;;;;;34.00;28.00;;;;;23.43;66.07;100753.60;112186;1263;21089;-38
2023/06/23 09:36:12;;;;;;;;;49.50;43.00;;;;;23.44;65.90;100742.71;112187;1263;20107;-39
2023/06/23 09:38:39;;;;;;;;;64.50;51.00;;;;;23.43;66.03;100741.58;112048;1263;18579;-39
2023/06/23 09:41:07;;;;;;;;;65.00;49.00;;;;;23.39;66.22;100740.61;112023;1263;20747;-39
2023/06/23 09:43:35;;;;;;;;;40.00;37.00;;;;;23.39;66.38;100739.76;112211;1248;22142;-37
2023/06/23 09:46:03;;;;;;;;;39.50;35.50;;;;;23.38;66.65;100738.53;112093;1256;18764;-39
2023/06/23 09:48:31;;;;;;;;;39.50;34.00;;;;;23.43;66.53;100737.31;112235;1263;19464;-39
2023/06/23 09:50:58;;;;;;;;;33.00;30.50;;;;;23.54;66.20;100735.38;112098;1263;21637;-39
2023/06/23 09:53:26;;;;;;;;;30.50;28.50;;;;;23.62;65.98;100733.11;112274;1263;19960;-39
2023/06/23 09:55:53;;;;;;;;;26.50;24.00;;;;;23.69;65.49;100729.35;112118;1263;19442;-38
2023/06/23 09:58:21;;;;;;;;;30.50;26.00;;;;;23.77;65.46;100727.70;112258;1263;20130;-39
2023/06/23 10:00:50;;;;;;;;;22.00;20.00;;;;;23.81;65.12;100719.27;112265;1263;18718;-40
2023/06/23 10:03:18;;;;;;;;;27.00;24.00;;;;;23.86;65.09;100715.95;112036;1263;19450;-38
2023/06/23 10:05:45;;;;;;;;;32.50;27.50;;;;;23.89;64.98;100711.67;112298;1262;21697;-38
2023/06/23 10:08:12;;;;;;;;;25.50;23.00;;;;;23.87;64.96;100706.77;112144;1263;18555;-38
2023/06/23 10:10:40;;;;;;;;;23.00;19.00;;;;;23.83;64.89;100709.46;112316;1248;21029;-38
2023/06/23 10:13:07;;;;;;;;;25.33;22.33;;;;;23.83;65.05;100711.52;112152;1248;20166;-37
2023/06/23 10:15:34;;;;;;;;;19.50;19.50;;;;;23.82;65.03;100712.36;112111;1263;18883;-37
2023/06/23 10:18:02;;;;;;;;;23.67;21.33;;;;;23.88;64.91;100719.00;112151;1263;19561;-40
2023/06/23 10:20:29;;;;;;;;;22.00;22.00;;;;;23.91;64.64;100723.02;112056;1263;21431;-38
2023/06/23 10:22:56;;;;;;;;;23.00;20.00;;;;;23.90;64.63;100730.42;112204;1263;18612;-37
2023/06/23 10:25:24;;;;;;;;;20.00;19.00;;;;;23.93;64.64;100738.77;112127;1263;19648;-38
2023/06/23 10:27:51;;;;;;;;;19.00;17.00;;;;;23.93;64.52;100733.64;112248;1248;20108;-37
2023/06/23 10:30:19;;;;;;;;;20.00;16.00;;;;;23.98;64.54;100735.08;112086;1248;20002;-38
2023/06/23 10:32:46;;;;;;;;;26.00;23.00;;;;;23.95;64.48;100736.73;112232;1248;20959;-38
2023/06/23 10:35:13;;;;;;;;;20.00;18.50;;;;;23.98;64.41;100739.61;112129;1263;20094;-38
2023/06/23 10:37:43;;;;;;;;;23.67;17.00;;;;;24.01;64.36;100736.67;112261;1263;20247;-38
2023/06/23 10:40:10;;;;;;;;;16.67;15.67;;;;;24.01;64.19;100731.23;112305;1248;21501;-39
2023/06/23 10:42:38;;;;;;;;;19.33;16.00;;;;;24.05;64.12;100729.45;112126;1248;21511;-38
2023/06/23 10:45:06;;;;;;;;;19.00;17.00;;;;;24.08;63.87;100726.44;112276;1262;19955;-38
2023/06/23 10:47:33;;;;;;;;;19.00;16.00;;;;;24.10;63.67;100728.05;112126;1263;19701;-38
2023/06/23 10:50:00;;;;;;;;;18.33;16.00;;;;;24.11;63.66;100732.23;112277;1247;21548;-38
2023/06/23 10:52:28;;;;;;;;;16.67;15.67;;;;;24.12;63.82;100731.60;112128;1248;19985;-38
2023/06/23 10:54:55;;;;;;;;;19.00;15.00;;;;;24.15;64.06;100731.25;112292;1251;22237;-38
2023/06/23 10:57:22;;;;;;;;;17.00;17.00;;;;;24.15;63.88;100733.82;112132;1248;21424;-39
2023/06/23 10:59:50;;;;;;;;;16.00;15.00;;;;;24.12;63.82;100733.42;112302;1248;20043;-38
2023/06/23 11:02:17;;;;;;;;;17.00;16.50;;;;;24.07;64.17;100734.59;112135;1263;21943;-38